createdAt,value
2022-10-07T00:01:35.056Z,100.00
2022-10-07T00:04:22.956Z,100.00
2022-10-07T00:07:10.903Z,100.00
2022-10-07T00:09:58.762Z,100.00
2022-10-07T00:12:46.648Z,100.00
2022-10-07T00:15:34.553Z,100.00
2022-10-07T00:18:23.734Z,100.00
2022-10-07T00:21:13.256Z,100.00
2022-10-07T00:24:01.768Z,100.00
2022-10-07T00:26:49.615Z,100.00
2022-10-07T00:29:37.475Z,100.00
2022-10-07T00:32:25.333Z,100.00
2022-10-07T00:35:16.436Z,100.00
2022-10-07T00:38:04.352Z,100.00
2022-10-07T00:40:52.260Z,100.00
2022-10-07T00:43:40.212Z,100.00
2022-10-07T00:46:32.345Z,100.00
2022-10-07T00:49:20.372Z,100.00
2022-10-07T00:52:10.910Z,100.00
2022-10-07T00:55:02.227Z,100.00
2022-10-07T00:57:52.426Z,100.00
2022-10-07T01:00:41.232Z,100.00
2022-10-07T01:03:29.690Z,100.00
2022-10-07T01:06:17.986Z,100.00
2022-10-07T01:09:08.700Z,100.00
2022-10-07T01:12:01.371Z,100.00
2022-10-07T01:15:01.055Z,100.00
2022-10-07T01:17:54.678Z,100.00
2022-10-07T01:20:47.666Z,100.00
2022-10-07T01:24:00.939Z,100.00
2022-10-07T01:26:57.312Z,100.00
2022-10-07T01:29:55.824Z,100.00
2022-10-07T01:32:48.244Z,100.00
2022-10-07T01:35:38.282Z,100.00
2022-10-07T01:38:33.674Z,100.00
2022-10-07T01:41:23.168Z,100.00
2022-10-07T01:44:13.768Z,100.00
2022-10-07T01:47:01.796Z,100.00
2022-10-07T01:49:49.780Z,100.00
2022-10-07T01:52:52.699Z,100.00
2022-10-07T01:55:52.751Z,100.00
2022-10-07T01:58:56.780Z,100.00
2022-10-07T02:01:53.993Z,100.00
2022-10-07T02:04:59.088Z,100.00
2022-10-07T02:08:02.362Z,100.00
2022-10-07T02:11:02.041Z,100.00
2022-10-07T02:14:01.311Z,100.00
2022-10-07T02:17:02.747Z,100.00
2022-10-07T02:19:56.401Z,100.00
2022-10-07T02:22:47.195Z,100.00
2022-10-07T02:25:39.653Z,100.00
2022-10-07T02:28:29.097Z,100.00
2022-10-07T02:31:21.381Z,100.00
2022-10-07T02:34:18.914Z,100.00
2022-10-07T02:37:15.503Z,100.00
2022-10-07T02:40:09.626Z,100.00
2022-10-07T02:43:05.245Z,100.00
2022-10-07T02:46:02.065Z,100.00
2022-10-07T02:48:58.755Z,100.00
2022-10-07T02:51:52.703Z,100.00
2022-10-07T02:54:45.008Z,100.00
2022-10-07T02:57:37.192Z,100.00
2022-10-07T03:00:25.531Z,100.00
2022-10-07T03:03:14.706Z,100.00
2022-10-07T03:06:19.892Z,100.00
2022-10-07T03:09:09.994Z,100.00
2022-10-07T03:11:58.268Z,100.00
2022-10-07T03:14:49.708Z,100.00
2022-10-07T03:17:39.603Z,100.00
2022-10-07T03:20:30.083Z,100.00
2022-10-07T03:23:18.036Z,100.00
2022-10-07T03:26:07.410Z,100.00
2022-10-07T03:28:55.340Z,100.00
2022-10-07T03:31:44.063Z,100.00
2022-10-07T03:34:32.510Z,100.00
2022-10-07T03:37:21.144Z,100.00
2022-10-07T03:40:10.049Z,100.00
2022-10-07T03:43:00.105Z,100.00
2022-10-07T03:45:51.317Z,100.00
2022-10-07T03:48:39.663Z,100.00
2022-10-07T03:51:28.353Z,100.00
2022-10-07T03:54:16.507Z,100.00
2022-10-07T03:57:24.767Z,100.00
2022-10-07T04:00:14.820Z,100.00
2022-10-07T04:03:02.860Z,100.00
2022-10-07T04:05:59.653Z,100.00
2022-10-07T04:08:52.741Z,100.00
2022-10-07T04:11:41.685Z,100.00
2022-10-07T04:14:30.385Z,100.00
2022-10-07T04:17:19.857Z,100.00
2022-10-07T04:20:09.234Z,100.00
2022-10-07T04:22:57.289Z,100.00
2022-10-07T04:25:46.644Z,100.00
2022-10-07T04:28:39.259Z,100.00
2022-10-07T04:31:33.444Z,100.00
2022-10-07T04:34:26.703Z,100.00
2022-10-07T04:37:15.305Z,100.00
2022-10-07T04:40:03.318Z,100.00
2022-10-07T04:43:11.806Z,100.00
2022-10-07T04:46:05.435Z,100.00
2022-10-07T04:48:55.474Z,100.00
2022-10-07T04:51:48.294Z,100.00
2022-10-07T04:54:39.328Z,100.00
2022-10-07T04:57:27.407Z,100.00
2022-10-07T05:00:15.665Z,100.00
2022-10-07T05:03:04.397Z,100.00
2022-10-07T05:05:54.099Z,100.00
2022-10-07T05:08:45.247Z,100.00
2022-10-07T05:11:34.662Z,100.00
2022-10-07T05:14:29.441Z,100.00
2022-10-07T05:17:20.153Z,100.00
2022-10-07T05:20:09.079Z,100.00
2022-10-07T05:22:58.077Z,100.00
2022-10-07T05:25:48.284Z,100.00
2022-10-07T05:28:36.533Z,100.00
2022-10-07T05:31:25.796Z,100.00
2022-10-07T05:34:16.349Z,100.00
2022-10-07T05:37:04.320Z,100.00
2022-10-07T05:39:52.964Z,100.00
2022-10-07T05:42:43.369Z,100.00
2022-10-07T05:45:31.950Z,100.00
2022-10-07T05:48:21.647Z,100.00
2022-10-07T05:51:09.744Z,100.00
2022-10-07T05:53:58.201Z,100.00
2022-10-07T05:56:53.873Z,100.00
2022-10-07T05:59:44.116Z,100.00
2022-10-07T06:02:32.546Z,100.00
2022-10-07T06:05:00.929Z,100.00
2022-10-07T06:07:29.746Z,100.00
2022-10-07T06:10:16.989Z,100.00
2022-10-07T06:13:02.254Z,100.00
2022-10-07T06:15:32.423Z,100.00
2022-10-07T06:18:00.332Z,100.00
2022-10-07T06:20:28.983Z,100.00
2022-10-07T06:22:58.879Z,100.00
2022-10-07T06:25:27.864Z,100.00
2022-10-07T06:27:58.091Z,100.00
2022-10-07T06:30:27.571Z,100.00
2022-10-07T06:32:57.352Z,100.00
2022-10-07T06:35:25.403Z,100.00
2022-10-07T06:37:54.856Z,100.00
2022-10-07T06:40:22.485Z,100.00
2022-10-07T06:42:50.441Z,100.00
2022-10-07T06:45:44.279Z,100.00
2022-10-07T06:48:14.883Z,100.00
2022-10-07T06:50:50.789Z,100.00
2022-10-07T06:53:18.643Z,100.00
2022-10-07T06:55:47.470Z,100.00
2022-10-07T06:58:15.746Z,100.00
2022-10-07T07:00:44.322Z,100.00
2022-10-07T07:03:12.188Z,100.00
2022-10-07T07:05:44.617Z,100.00
2022-10-07T07:08:17.194Z,100.00
2022-10-07T07:10:46.251Z,100.00
2022-10-07T07:13:15.420Z,100.00
2022-10-07T07:15:43.528Z,100.00
2022-10-07T07:18:11.683Z,100.00
2022-10-07T07:20:41.449Z,100.00
2022-10-07T07:23:10.955Z,100.00
2022-10-07T07:25:44.146Z,100.00
2022-10-07T07:28:11.907Z,100.00
2022-10-07T07:30:40.867Z,100.00
2022-10-07T07:33:11.523Z,100.00
2022-10-07T07:35:43.449Z,100.00
2022-10-07T07:38:11.686Z,100.00
2022-10-07T07:40:40.634Z,100.00
2022-10-07T07:43:09.410Z,100.00
2022-10-07T07:45:37.147Z,100.00
2022-10-07T07:48:05.530Z,100.00
2022-10-07T07:50:35.509Z,100.00
2022-10-07T07:53:05.654Z,100.00
2022-10-07T07:55:33.618Z,100.00
2022-10-07T07:58:01.593Z,100.00
2022-10-07T08:00:30.294Z,100.00
2022-10-07T08:03:04.126Z,100.00
2022-10-07T08:05:35.670Z,100.00
2022-10-07T08:08:05.348Z,100.00
2022-10-07T08:10:33.463Z,100.00
2022-10-07T08:13:01.127Z,100.00
2022-10-07T08:15:28.888Z,100.00
2022-10-07T08:17:57.083Z,100.00
2022-10-07T08:20:24.763Z,100.00
2022-10-07T08:22:56.900Z,100.00
2022-10-07T08:25:29.389Z,100.00
2022-10-07T08:27:58.835Z,100.00
2022-10-07T08:30:27.218Z,100.00
2022-10-07T08:32:59.014Z,100.00
2022-10-07T08:35:28.756Z,100.00
2022-10-07T08:37:57.093Z,100.00
2022-10-07T08:40:24.728Z,100.00
2022-10-07T08:42:54.540Z,100.00
2022-10-07T08:45:29.344Z,100.00
2022-10-07T08:47:57.794Z,100.00
2022-10-07T08:50:30.907Z,100.00
2022-10-07T08:53:02.935Z,100.00
2022-10-07T08:55:37.255Z,100.00
2022-10-07T08:58:26.394Z,100.00
2022-10-07T09:01:00.213Z,100.00
2022-10-07T09:03:39.938Z,100.00
2022-10-07T09:06:14.100Z,100.00
2022-10-07T09:08:47.275Z,100.00
2022-10-07T09:11:25.412Z,100.00
2022-10-07T09:13:59.155Z,100.00
2022-10-07T09:16:31.279Z,100.00
2022-10-07T09:19:01.648Z,100.00
2022-10-07T09:21:37.355Z,100.00
2022-10-07T09:24:18.475Z,100.00
2022-10-07T09:26:46.353Z,100.00
2022-10-07T09:29:17.013Z,100.00
2022-10-07T09:31:44.717Z,100.00
2022-10-07T09:34:23.179Z,100.00
2022-10-07T09:37:19.016Z,100.00
2022-10-07T09:39:48.297Z,100.00
2022-10-07T09:42:29.482Z,100.00
2022-10-07T09:45:00.986Z,100.00
2022-10-07T09:47:32.783Z,100.00
2022-10-07T09:50:00.548Z,100.00
2022-10-07T09:52:29.424Z,100.00
2022-10-07T09:54:59.591Z,97.98
2022-10-07T09:57:30.941Z,96.92
2022-10-07T10:00:22.230Z,95.62
2022-10-07T10:02:52.999Z,99.66
2022-10-07T10:05:24.943Z,100.00
2022-10-07T10:07:59.475Z,91.31
2022-10-07T10:10:29.762Z,91.19
2022-10-07T10:12:59.561Z,86.11
2022-10-07T10:15:39.532Z,85.97
2022-10-07T10:18:28.456Z,85.54
2022-10-07T10:20:56.360Z,81.92
2022-10-07T10:23:28.898Z,79.16
2022-10-07T10:26:27.182Z,81.22
2022-10-07T10:29:05.569Z,82.66
2022-10-07T10:31:49.473Z,83.73
2022-10-07T10:34:32.190Z,81.20
2022-10-07T10:37:04.862Z,81.95
2022-10-07T10:39:47.498Z,82.15
2022-10-07T10:42:22.598Z,82.69
2022-10-07T10:45:03.661Z,82.52
2022-10-07T10:47:45.422Z,82.80
2022-10-07T10:50:23.649Z,80.73
2022-10-07T10:53:03.817Z,79.34
2022-10-07T10:55:54.461Z,77.82
2022-10-07T10:58:31.984Z,77.62
2022-10-07T11:01:11.832Z,77.46
2022-10-07T11:04:16.912Z,80.09
2022-10-07T11:06:51.172Z,79.05
2022-10-07T11:09:29.911Z,77.98
2022-10-07T11:12:01.686Z,77.45
2022-10-07T11:14:31.605Z,73.79
2022-10-07T11:17:04.897Z,72.68
2022-10-07T11:19:39.245Z,70.89
2022-10-07T11:22:14.586Z,68.87
2022-10-07T11:24:46.531Z,68.63
2022-10-07T11:27:19.760Z,70.10
2022-10-07T11:29:52.549Z,67.98
2022-10-07T11:32:25.444Z,63.60
2022-10-07T11:35:00.510Z,63.77
2022-10-07T11:37:32.394Z,63.09
2022-10-07T11:40:00.273Z,62.02
2022-10-07T11:42:29.873Z,62.22
2022-10-07T11:45:02.629Z,62.64
2022-10-07T11:47:35.402Z,61.63
2022-10-07T11:50:10.674Z,61.37
2022-10-07T11:52:42.668Z,60.14
2022-10-07T11:55:17.167Z,63.39
2022-10-07T11:57:54.143Z,59.63
2022-10-07T12:00:26.976Z,59.20
2022-10-07T12:02:56.133Z,59.63
2022-10-07T12:06:06.917Z,62.00
2022-10-07T12:08:38.397Z,60.76
2022-10-07T12:11:42.942Z,61.69
2022-10-07T12:14:42.524Z,62.50
2022-10-07T12:17:30.286Z,62.70
2022-10-07T12:20:37.143Z,62.18
2022-10-07T12:23:41.274Z,58.57
2022-10-07T12:26:51.479Z,61.30
2022-10-07T12:29:36.249Z,59.84
2022-10-07T12:32:04.742Z,59.38
2022-10-07T12:34:39.691Z,59.21
2022-10-07T12:37:45.009Z,58.52
2022-10-07T12:40:25.897Z,58.75
2022-10-07T12:43:00.217Z,61.64
2022-10-07T12:45:31.965Z,60.58
2022-10-07T12:48:01.730Z,61.51
2022-10-07T12:50:31.777Z,61.29
2022-10-07T12:53:03.564Z,60.59
2022-10-07T12:55:37.266Z,59.13
2022-10-07T12:58:34.188Z,64.59
2022-10-07T13:01:16.553Z,64.73
2022-10-07T13:04:06.945Z,65.15
2022-10-07T13:07:22.798Z,65.81
2022-10-07T13:10:19.056Z,65.53
2022-10-07T13:12:51.756Z,66.35
2022-10-07T13:15:28.905Z,67.06
2022-10-07T13:18:06.254Z,65.92
2022-10-07T13:20:47.484Z,64.21
2022-10-07T13:23:17.826Z,70.12
2022-10-07T13:25:49.555Z,66.56
2022-10-07T13:28:22.316Z,67.62
2022-10-07T13:30:51.587Z,66.41
2022-10-07T13:33:27.671Z,66.99
2022-10-07T13:36:13.805Z,69.49
2022-10-07T13:38:41.528Z,67.27
2022-10-07T13:41:14.805Z,69.49
2022-10-07T13:43:45.179Z,67.60
2022-10-07T13:46:14.415Z,73.47
2022-10-07T13:48:45.776Z,70.38
2022-10-07T13:51:20.553Z,70.25
2022-10-07T13:53:53.980Z,72.14
2022-10-07T13:56:25.114Z,73.00
2022-10-07T13:58:55.338Z,70.62
2022-10-07T14:01:27.197Z,74.41
2022-10-07T14:04:10.420Z,75.69
2022-10-07T14:06:45.773Z,74.21
2022-10-07T14:09:22.729Z,74.43
2022-10-07T14:11:55.044Z,74.19
2022-10-07T14:14:28.189Z,71.45
2022-10-07T14:16:59.259Z,71.43
2022-10-07T14:19:31.816Z,70.96
2022-10-07T14:22:02.937Z,68.06
2022-10-07T14:24:31.716Z,70.78
2022-10-07T14:27:00.444Z,71.73
2022-10-07T14:29:38.589Z,74.34
2022-10-07T14:32:35.231Z,75.32
2022-10-07T14:35:19.320Z,72.51
2022-10-07T14:37:47.354Z,72.66
2022-10-07T14:40:19.319Z,72.18
2022-10-07T14:42:47.821Z,74.45
2022-10-07T14:45:18.545Z,72.85
2022-10-07T14:47:46.666Z,74.69
2022-10-07T14:50:14.994Z,74.76
2022-10-07T14:52:46.910Z,76.46
2022-10-07T14:55:19.335Z,78.95
2022-10-07T14:57:48.138Z,78.73
2022-10-07T15:00:20.232Z,76.87
2022-10-07T15:02:50.203Z,76.53
2022-10-07T15:05:18.793Z,81.51
2022-10-07T15:07:46.899Z,84.55
2022-10-07T15:10:16.969Z,83.64
2022-10-07T15:12:45.128Z,86.02
2022-10-07T15:15:13.911Z,84.33
2022-10-07T15:17:44.246Z,84.00
2022-10-07T15:20:14.244Z,85.36
2022-10-07T15:22:42.674Z,84.40
2022-10-07T15:25:12.340Z,91.80
2022-10-07T15:27:39.990Z,85.04
2022-10-07T15:30:08.923Z,90.08
2022-10-07T15:32:36.801Z,90.46
2022-10-07T15:35:07.447Z,96.78
2022-10-07T15:37:35.084Z,90.98
2022-10-07T15:40:02.732Z,97.28
2022-10-07T15:42:30.397Z,100.00
2022-10-07T15:44:58.249Z,98.69
2022-10-07T15:47:28.089Z,86.12
2022-10-07T15:49:55.690Z,85.99
2022-10-07T15:52:25.052Z,86.95
2022-10-07T15:54:52.720Z,85.70
2022-10-07T15:57:22.334Z,97.06
2022-10-07T15:59:49.919Z,100.00
2022-10-07T16:02:21.233Z,100.00
2022-10-07T16:04:48.980Z,100.00
2022-10-07T16:07:17.225Z,100.00
2022-10-07T16:09:46.165Z,100.00
2022-10-07T16:12:14.114Z,100.00
2022-10-07T16:14:41.746Z,100.00
2022-10-07T16:17:09.384Z,100.00
2022-10-07T16:19:37.139Z,100.00
2022-10-07T16:22:04.755Z,100.00
2022-10-07T16:24:35.306Z,100.00
2022-10-07T16:27:04.710Z,100.00
2022-10-07T16:29:50.079Z,100.00
2022-10-07T16:32:17.716Z,100.00
2022-10-07T16:34:46.793Z,100.00
2022-10-07T16:37:15.224Z,100.00
2022-10-07T16:39:42.979Z,100.00
2022-10-07T16:42:12.139Z,100.00
2022-10-07T16:44:39.784Z,100.00
2022-10-07T16:47:07.455Z,100.00
2022-10-07T16:49:36.332Z,100.00
2022-10-07T16:52:04.370Z,100.00
2022-10-07T16:54:35.299Z,100.00
2022-10-07T16:57:03.023Z,100.00
2022-10-07T16:59:32.104Z,100.00
2022-10-07T17:02:02.510Z,100.00
2022-10-07T17:04:30.370Z,100.00
2022-10-07T17:06:58.180Z,100.00
2022-10-07T17:09:25.795Z,100.00
2022-10-07T17:11:53.469Z,100.00
2022-10-07T17:14:22.846Z,100.00
2022-10-07T17:16:54.161Z,100.00
2022-10-07T17:19:24.388Z,100.00
2022-10-07T17:21:53.176Z,100.00
2022-10-07T17:24:22.779Z,100.00
2022-10-07T17:26:52.354Z,100.00
2022-10-07T17:29:21.950Z,100.00
2022-10-07T17:31:50.623Z,100.00
2022-10-07T17:34:21.269Z,100.00
2022-10-07T17:36:49.505Z,100.00
2022-10-07T17:39:18.954Z,100.00
2022-10-07T17:41:46.802Z,100.00
2022-10-07T17:44:14.677Z,100.00
2022-10-07T17:46:42.382Z,100.00
2022-10-07T17:49:13.070Z,100.00
2022-10-07T17:51:43.796Z,100.00
2022-10-07T17:54:13.446Z,100.00
2022-10-07T17:56:41.245Z,100.00
2022-10-07T17:59:08.933Z,100.00
2022-10-07T18:01:37.598Z,100.00
2022-10-07T18:04:06.706Z,100.00
2022-10-07T18:06:36.347Z,100.00
2022-10-07T18:09:07.766Z,100.00
2022-10-07T18:11:53.211Z,100.00
2022-10-07T18:14:39.272Z,100.00
2022-10-07T18:17:08.712Z,100.00
2022-10-07T18:19:36.766Z,100.00
2022-10-07T18:22:04.507Z,100.00
2022-10-07T18:24:33.502Z,100.00
2022-10-07T18:27:02.035Z,100.00
2022-10-07T18:29:31.473Z,100.00
2022-10-07T18:31:59.557Z,100.00
2022-10-07T18:34:27.174Z,100.00
2022-10-07T18:36:57.013Z,100.00
2022-10-07T18:39:27.189Z,100.00
2022-10-07T18:41:56.585Z,100.00
2022-10-07T18:44:24.314Z,100.00
2022-10-07T18:46:52.249Z,100.00
2022-10-07T18:49:19.854Z,100.00
2022-10-07T18:51:50.303Z,100.00
2022-10-07T18:54:17.969Z,100.00
2022-10-07T18:56:47.705Z,100.00
2022-10-07T18:59:17.660Z,100.00
2022-10-07T19:01:50.127Z,100.00
2022-10-07T19:04:19.809Z,100.00
2022-10-07T19:06:47.579Z,100.00
2022-10-07T19:09:17.034Z,100.00
2022-10-07T19:11:45.009Z,100.00
2022-10-07T19:14:12.080Z,100.00
2022-10-07T19:16:43.586Z,100.00
2022-10-07T19:19:13.759Z,100.00
2022-10-07T19:21:41.849Z,100.00
2022-10-07T19:24:09.467Z,100.00
2022-10-07T19:26:42.229Z,100.00
2022-10-07T19:29:10.739Z,100.00
2022-10-07T19:31:40.475Z,100.00
2022-10-07T19:34:11.450Z,100.00
2022-10-07T19:36:42.328Z,100.00
2022-10-07T19:39:11.291Z,100.00
2022-10-07T19:41:38.997Z,100.00
2022-10-07T19:44:06.792Z,100.00
2022-10-07T19:46:34.500Z,100.00
2022-10-07T19:49:03.509Z,100.00
2022-10-07T19:51:34.074Z,100.00
2022-10-07T19:54:03.374Z,100.00
2022-10-07T19:56:32.857Z,100.00
2022-10-07T19:59:05.342Z,100.00
2022-10-07T20:01:35.148Z,100.00
2022-10-07T20:04:23.130Z,100.00
2022-10-07T20:07:12.472Z,100.00
2022-10-07T20:10:00.461Z,100.00
2022-10-07T20:12:48.563Z,100.00
2022-10-07T20:15:37.104Z,100.00
2022-10-07T20:18:25.093Z,100.00
2022-10-07T20:21:16.005Z,100.00
2022-10-07T20:24:07.370Z,100.00
2022-10-07T20:26:55.322Z,100.00
2022-10-07T20:32:37.285Z,100.00
2022-10-07T20:35:25.220Z,100.00
2022-10-07T20:38:13.114Z,100.00
2022-10-07T20:41:18.946Z,100.00
2022-10-07T20:44:08.023Z,100.00
2022-10-07T20:46:57.173Z,100.00
2022-10-07T20:49:48.437Z,100.00
2022-10-07T20:52:37.176Z,100.00
2022-10-07T20:55:25.099Z,100.00
2022-10-07T20:58:14.866Z,100.00
2022-10-07T21:01:08.506Z,100.00
2022-10-07T21:03:56.880Z,100.00
2022-10-07T21:06:46.147Z,100.00
2022-10-07T21:09:36.477Z,100.00
2022-10-07T21:12:24.576Z,100.00
2022-10-07T21:15:12.553Z,100.00
2022-10-07T21:18:00.469Z,100.00
2022-10-07T21:20:56.324Z,100.00
2022-10-07T21:23:46.447Z,100.00
2022-10-07T21:26:34.837Z,100.00
2022-10-07T21:29:22.975Z,100.00
2022-10-07T21:32:11.645Z,100.00
2022-10-07T21:34:59.585Z,100.00
2022-10-07T21:37:47.493Z,100.00
2022-10-07T21:40:36.744Z,100.00
2022-10-07T21:43:24.645Z,100.00
2022-10-07T21:46:12.618Z,100.00
2022-10-07T21:49:00.719Z,100.00
2022-10-07T21:51:48.626Z,100.00
2022-10-07T21:54:37.407Z,100.00
2022-10-07T21:57:26.691Z,100.00
2022-10-07T22:00:16.390Z,100.00
2022-10-07T22:03:04.739Z,100.00
2022-10-07T22:05:52.711Z,100.00
2022-10-07T22:08:40.878Z,100.00
2022-10-07T22:11:28.772Z,100.00
2022-10-07T22:14:18.690Z,100.00
2022-10-07T22:17:06.656Z,100.00
2022-10-07T22:19:54.768Z,100.00
2022-10-07T22:22:42.888Z,100.00
2022-10-07T22:25:30.913Z,100.00
2022-10-07T22:28:18.885Z,100.00
2022-10-07T22:31:10.678Z,100.00
2022-10-07T22:34:00.297Z,100.00
2022-10-07T22:36:48.190Z,100.00
2022-10-07T22:39:36.095Z,100.00
2022-10-07T22:42:24.165Z,100.00
2022-10-07T22:45:12.656Z,100.00
2022-10-07T22:48:02.115Z,100.00
2022-10-07T22:50:50.812Z,100.00
2022-10-07T22:53:40.817Z,100.00
2022-10-07T22:56:29.384Z,100.00
2022-10-07T22:59:17.464Z,100.00
2022-10-07T23:02:05.442Z,100.00
2022-10-07T23:04:54.726Z,100.00
2022-10-07T23:07:42.609Z,100.00
2022-10-07T23:10:30.569Z,100.00
2022-10-07T23:13:18.470Z,100.00
2022-10-07T23:16:11.859Z,100.00
2022-10-07T23:19:00.059Z,100.00
2022-10-07T23:21:49.532Z,100.00
2022-10-07T23:24:37.408Z,100.00
2022-10-07T23:27:25.353Z,100.00
2022-10-07T23:30:13.736Z,100.00
2022-10-07T23:33:01.668Z,100.00
2022-10-07T23:35:49.615Z,100.00
2022-10-07T23:38:40.699Z,100.00
2022-10-07T23:41:32.331Z,100.00
2022-10-07T23:44:20.220Z,100.00
2022-10-07T23:47:08.130Z,100.00
2022-10-07T23:49:56.099Z,100.00
2022-10-07T23:52:44.203Z,100.00
2022-10-07T23:55:33.652Z,100.00
2022-10-07T23:58:23.573Z,100.00
